createdAt,value
2019-06-07T00:00:47.667Z,99.90
2019-06-07T00:03:50.893Z,99.90
2019-06-07T00:06:54.532Z,99.90
2019-06-07T00:09:57.696Z,99.90
2019-06-07T00:13:01.030Z,99.90
2019-06-07T00:16:04.623Z,99.90
2019-06-07T00:19:09.695Z,99.90
2019-06-07T00:22:18.065Z,99.90
2019-06-07T00:25:24.010Z,99.90
2019-06-07T00:28:24.220Z,99.90
2019-06-07T00:31:27.557Z,99.90
2019-06-07T00:34:30.772Z,99.90
2019-06-07T00:37:34.056Z,99.90
2019-06-07T00:40:37.329Z,99.90
2019-06-07T00:43:40.553Z,99.90
2019-06-07T00:46:43.716Z,99.90
2019-06-07T00:49:46.840Z,99.90
2019-06-07T00:55:55.038Z,99.90
2019-06-07T00:59:10.755Z,99.90
2019-06-07T01:02:03.472Z,99.90
2019-06-07T01:05:07.191Z,99.90
2019-06-07T01:08:10.517Z,99.90
2019-06-07T01:11:15.927Z,99.90
2019-06-07T01:14:24.065Z,99.90
2019-06-07T01:17:39.086Z,99.90
2019-06-07T01:20:31.257Z,99.90
2019-06-07T01:24:04.753Z,99.90
2019-06-07T01:26:39.381Z,99.90
2019-06-07T01:29:42.509Z,99.90
2019-06-07T01:32:45.869Z,99.90
2019-06-07T01:35:48.968Z,99.90
2019-06-07T01:38:52.622Z,99.90
2019-06-07T01:41:56.073Z,99.90
2019-06-07T01:44:59.269Z,99.90
2019-06-07T01:48:02.569Z,99.90
2019-06-07T01:51:07.536Z,99.90
2019-06-07T01:54:49.649Z,99.90
2019-06-07T01:57:31.085Z,99.90
2019-06-07T02:00:22.017Z,99.90
2019-06-07T02:03:26.922Z,99.90
2019-06-07T02:06:32.293Z,99.90
2019-06-07T02:09:35.748Z,99.90
2019-06-07T02:12:43.266Z,99.90
2019-06-07T02:15:43.868Z,99.90
2019-06-07T02:19:01.138Z,99.90
2019-06-07T02:21:52.386Z,99.90
2019-06-07T02:25:34.424Z,99.90
2019-06-07T02:28:26.026Z,99.90
2019-06-07T02:31:05.776Z,99.90
2019-06-07T02:34:09.341Z,99.90
2019-06-07T02:37:12.632Z,99.90
2019-06-07T02:40:17.918Z,99.90
2019-06-07T02:43:24.851Z,99.90
2019-06-07T02:46:38.041Z,99.90
2019-06-07T02:49:37.286Z,99.90
2019-06-07T02:52:40.162Z,99.90
2019-06-07T02:56:32.899Z,99.90
2019-06-07T02:58:46.573Z,99.90
2019-06-07T03:01:50.000Z,99.90
2019-06-07T03:04:53.174Z,99.90
2019-06-07T03:07:57.013Z,99.90
2019-06-07T03:11:01.174Z,99.90
2019-06-07T03:14:04.512Z,99.90
2019-06-07T03:17:20.001Z,99.90
2019-06-07T03:20:23.573Z,99.90
2019-06-07T03:23:28.855Z,99.90
2019-06-07T03:26:45.152Z,99.90
2019-06-07T03:29:41.219Z,99.90
2019-06-07T03:32:47.858Z,99.90
2019-06-07T03:35:48.569Z,99.90
2019-06-07T03:38:51.765Z,99.90
2019-06-07T03:42:05.597Z,99.90
2019-06-07T03:45:00.000Z,99.90
2019-06-07T03:48:03.434Z,99.90
2019-06-07T03:51:24.018Z,99.90
2019-06-07T03:54:11.936Z,99.90
2019-06-07T03:57:15.238Z,99.90
2019-06-07T04:00:18.445Z,99.90
2019-06-07T04:03:33.501Z,99.90
2019-06-07T04:06:28.845Z,99.90
2019-06-07T04:09:35.605Z,99.90
2019-06-07T04:12:40.001Z,99.90
2019-06-07T04:15:41.821Z,99.90
2019-06-07T04:18:45.004Z,99.90
2019-06-07T04:21:48.434Z,99.90
2019-06-07T04:24:51.509Z,99.90
2019-06-07T04:27:54.864Z,99.90
2019-06-07T04:30:57.993Z,99.90
2019-06-07T04:34:01.093Z,99.90
2019-06-07T04:37:04.857Z,99.90
2019-06-07T04:40:08.197Z,99.90
2019-06-07T04:43:12.987Z,99.90
2019-06-07T04:46:40.802Z,99.90
2019-06-07T04:49:44.359Z,99.90
2019-06-07T04:52:47.818Z,99.90
2019-06-07T04:55:52.120Z,99.90
2019-06-07T04:58:56.420Z,99.90
2019-06-07T05:01:59.558Z,99.90
2019-06-07T05:05:03.146Z,99.90
2019-06-07T05:08:07.930Z,99.90
2019-06-07T05:11:11.389Z,99.90
2019-06-07T05:14:20.588Z,99.90
2019-06-07T05:17:23.908Z,99.90
2019-06-07T05:20:27.412Z,99.90
2019-06-07T05:26:40.168Z,99.90
2019-06-07T05:29:44.304Z,99.90
2019-06-07T05:32:48.047Z,99.90
2019-06-07T05:35:51.177Z,99.90
2019-06-07T05:38:54.540Z,99.90
2019-06-07T05:41:57.665Z,99.90
2019-06-07T05:45:01.138Z,99.90
2019-06-07T05:48:06.355Z,99.90
2019-06-07T05:51:10.986Z,99.90
2019-06-07T05:54:14.304Z,99.90
2019-06-07T05:57:17.491Z,99.90
2019-06-07T06:00:20.800Z,99.90
2019-06-07T06:03:23.993Z,99.90
2019-06-07T06:06:27.336Z,99.90
2019-06-07T06:09:30.409Z,99.90
2019-06-07T06:12:38.319Z,99.90
2019-06-07T06:15:45.378Z,99.90
2019-06-07T06:18:46.861Z,99.90
2019-06-07T06:21:48.748Z,99.90
2019-06-07T06:25:29.806Z,99.90
2019-06-07T06:28:10.192Z,99.90
2019-06-07T06:31:02.170Z,99.90
2019-06-07T06:34:05.509Z,99.90
2019-06-07T06:37:08.664Z,99.90
2019-06-07T06:40:12.534Z,99.90
2019-06-07T06:43:15.776Z,99.90
2019-06-07T06:46:37.284Z,99.90
2019-06-07T06:49:24.006Z,99.90
2019-06-07T06:52:27.200Z,99.90
2019-06-07T06:55:30.388Z,99.90
2019-06-07T06:59:18.815Z,99.90
2019-06-07T07:01:39.782Z,99.90
2019-06-07T07:04:44.017Z,99.90
2019-06-07T07:07:51.630Z,99.90
2019-06-07T07:10:54.993Z,99.90
2019-06-07T07:13:58.783Z,99.90
2019-06-07T07:17:06.336Z,99.90
2019-06-07T07:20:09.888Z,99.90
2019-06-07T07:23:14.101Z,99.90
2019-06-07T07:26:17.209Z,99.90
2019-06-07T07:29:20.389Z,99.90
2019-06-07T07:32:25.057Z,99.90
2019-06-07T07:35:29.384Z,99.90
2019-06-07T07:38:32.679Z,99.90
2019-06-07T07:41:36.044Z,99.90
2019-06-07T07:44:39.281Z,99.90
2019-06-07T07:47:58.450Z,99.90
2019-06-07T07:50:49.811Z,99.90
2019-06-07T07:54:04.214Z,99.90
2019-06-07T07:56:57.745Z,99.90
2019-06-07T08:00:25.705Z,99.90
2019-06-07T08:03:08.274Z,99.90
2019-06-07T08:06:11.633Z,99.90
2019-06-07T08:09:14.869Z,99.90
2019-06-07T08:12:18.364Z,99.90
2019-06-07T08:15:21.665Z,99.90
2019-06-07T08:18:25.176Z,99.90
2019-06-07T08:21:28.538Z,99.90
2019-06-07T08:24:31.760Z,99.90
2019-06-07T08:27:34.944Z,99.90
2019-06-07T08:31:03.688Z,99.90
2019-06-07T08:33:44.505Z,99.90
2019-06-07T08:36:48.038Z,99.90
2019-06-07T08:39:56.716Z,99.90
2019-06-07T08:43:15.091Z,99.90
2019-06-07T08:46:07.384Z,99.90
2019-06-07T08:49:08.916Z,99.90
2019-06-07T08:52:12.691Z,99.90
2019-06-07T08:55:16.314Z,99.90
2019-06-07T08:58:19.493Z,99.90
2019-06-07T09:01:22.786Z,99.90
2019-06-07T09:04:26.311Z,99.90
2019-06-07T09:07:29.577Z,99.90
2019-06-07T09:10:33.014Z,99.70
2019-06-07T09:13:36.165Z,99.90
2019-06-07T09:16:39.568Z,97.10
2019-06-07T09:19:42.793Z,97.60
2019-06-07T09:22:46.153Z,99.90
2019-06-07T09:26:01.285Z,99.90
2019-06-07T09:28:56.189Z,99.90
2019-06-07T09:32:04.707Z,99.90
2019-06-07T09:35:12.443Z,99.90
2019-06-07T09:38:24.297Z,99.90
2019-06-07T09:41:16.353Z,99.90
2019-06-07T09:44:25.500Z,99.90
2019-06-07T09:47:32.579Z,99.90
2019-06-07T09:50:29.798Z,96.70
2019-06-07T09:53:33.261Z,95.30
2019-06-07T09:56:36.358Z,95.80
2019-06-07T09:59:39.654Z,94.80
2019-06-07T10:02:42.868Z,92.90
2019-06-07T10:05:46.281Z,91.70
2019-06-07T10:11:54.690Z,89.80
2019-06-07T10:14:58.686Z,89.20
2019-06-07T10:18:02.783Z,89.30
2019-06-07T10:21:07.676Z,85.20
2019-06-07T10:24:11.402Z,85.70
2019-06-07T10:27:15.012Z,89.80
2019-06-07T10:30:18.552Z,89.40
2019-06-07T10:33:21.769Z,85.00
2019-06-07T10:36:24.858Z,83.80
2019-06-07T10:39:28.257Z,89.20
2019-06-07T10:42:31.560Z,86.50
2019-06-07T10:45:35.768Z,88.30
2019-06-07T10:48:39.068Z,87.10
2019-06-07T10:51:42.179Z,85.30
2019-06-07T10:54:45.393Z,82.80
2019-06-07T10:57:48.589Z,81.90
2019-06-07T11:00:52.141Z,84.40
2019-06-07T11:03:55.891Z,79.50
2019-06-07T11:06:59.326Z,83.00
2019-06-07T11:10:07.086Z,84.20
2019-06-07T11:13:08.756Z,85.20
2019-06-07T11:16:13.087Z,81.60
2019-06-07T11:19:17.922Z,82.20
2019-06-07T11:22:21.558Z,82.50
2019-06-07T11:25:24.784Z,82.70
2019-06-07T11:28:28.135Z,85.70
2019-06-07T11:31:31.304Z,87.20
2019-06-07T11:34:34.676Z,88.10
2019-06-07T11:37:37.905Z,90.40
2019-06-07T11:40:41.100Z,87.50
2019-06-07T11:43:44.311Z,86.70
2019-06-07T11:46:47.613Z,86.00
2019-06-07T11:49:50.754Z,78.20
2019-06-07T11:52:53.881Z,79.00
2019-06-07T11:55:56.984Z,82.30
2019-06-07T11:59:00.037Z,81.10
2019-06-07T12:02:03.566Z,81.10
2019-06-07T12:05:07.848Z,84.20
2019-06-07T12:08:11.906Z,85.80
2019-06-07T12:11:16.371Z,79.50
2019-06-07T12:14:19.732Z,79.20
2019-06-07T12:17:22.823Z,84.00
2019-06-07T12:20:26.084Z,84.10
2019-06-07T12:23:29.517Z,86.30
2019-06-07T12:26:32.933Z,81.20
2019-06-07T12:29:36.080Z,87.50
2019-06-07T12:32:39.453Z,80.50
2019-06-07T12:35:42.572Z,82.60
2019-06-07T12:38:46.008Z,80.80
2019-06-07T12:41:49.069Z,83.00
2019-06-07T12:44:52.286Z,85.60
2019-06-07T12:47:55.589Z,83.50
2019-06-07T12:50:58.711Z,80.20
2019-06-07T12:54:02.054Z,78.20
2019-06-07T12:57:05.460Z,79.70
2019-06-07T13:00:10.287Z,81.00
2019-06-07T13:03:14.243Z,83.20
2019-06-07T13:06:17.729Z,80.80
2019-06-07T13:09:21.886Z,83.60
2019-06-07T13:12:25.048Z,82.70
2019-06-07T13:15:28.328Z,81.40
2019-06-07T13:18:33.629Z,81.40
2019-06-07T13:21:36.749Z,78.10
2019-06-07T13:24:39.944Z,79.20
2019-06-07T13:27:43.091Z,76.70
2019-06-07T13:30:46.233Z,76.10
2019-06-07T13:33:49.636Z,79.60
2019-06-07T13:36:53.964Z,82.20
2019-06-07T13:39:57.249Z,85.30
2019-06-07T13:43:00.480Z,79.40
2019-06-07T13:46:03.637Z,80.40
2019-06-07T13:49:06.836Z,76.40
2019-06-07T13:52:10.032Z,76.20
2019-06-07T13:55:13.654Z,79.70
2019-06-07T13:58:18.488Z,76.70
2019-06-07T14:01:22.498Z,73.10
2019-06-07T14:04:26.938Z,71.70
2019-06-07T14:07:30.309Z,75.10
2019-06-07T14:10:33.500Z,74.30
2019-06-07T14:13:36.597Z,73.40
2019-06-07T14:16:39.788Z,72.20
2019-06-07T14:19:42.991Z,72.50
2019-06-07T14:22:47.281Z,70.50
2019-06-07T14:25:50.501Z,71.30
2019-06-07T14:28:53.825Z,69.90
2019-06-07T14:31:57.102Z,70.20
2019-06-07T14:35:00.456Z,73.90
2019-06-07T14:38:03.617Z,69.90
2019-06-07T14:41:06.719Z,67.60
2019-06-07T14:44:09.929Z,69.30
2019-06-07T14:47:13.179Z,69.80
2019-06-07T14:50:16.611Z,70.30
2019-06-07T14:53:19.886Z,66.10
2019-06-07T14:56:22.976Z,65.00
2019-06-07T14:59:26.318Z,68.00
2019-06-07T15:02:33.800Z,69.30
2019-06-07T15:05:35.675Z,66.70
2019-06-07T15:08:39.240Z,66.00
2019-06-07T15:11:42.320Z,70.60
2019-06-07T15:14:45.746Z,69.30
2019-06-07T15:17:49.029Z,69.90
2019-06-07T15:20:52.458Z,66.70
2019-06-07T15:23:55.609Z,67.30
2019-06-07T15:26:58.704Z,70.50
2019-06-07T15:30:09.453Z,69.30
2019-06-07T15:33:07.182Z,68.10
2019-06-07T15:36:10.480Z,71.70
2019-06-07T15:39:13.648Z,70.60
2019-06-07T15:42:16.934Z,69.20
2019-06-07T15:45:20.421Z,68.60
2019-06-07T15:48:23.538Z,73.90
2019-06-07T15:51:26.860Z,74.00
2019-06-07T15:54:30.275Z,73.50
2019-06-07T15:57:35.089Z,71.90
2019-06-07T16:00:40.565Z,69.70
2019-06-07T16:03:43.420Z,69.90
2019-06-07T16:06:46.601Z,72.10
2019-06-07T16:09:49.785Z,71.60
2019-06-07T16:13:00.171Z,70.20
2019-06-07T16:15:58.052Z,70.50
2019-06-07T16:19:27.859Z,73.10
2019-06-07T16:22:31.141Z,73.00
2019-06-07T16:25:35.852Z,72.10
2019-06-07T16:28:40.376Z,75.10
2019-06-07T16:31:44.913Z,77.20
2019-06-07T16:34:48.637Z,74.60
2019-06-07T16:37:52.367Z,73.20
2019-06-07T16:40:55.869Z,74.20
2019-06-07T16:43:59.045Z,75.10
2019-06-07T16:47:02.573Z,73.70
2019-06-07T16:50:06.425Z,74.10
2019-06-07T16:53:09.753Z,74.90
2019-06-07T16:56:14.129Z,76.10
2019-06-07T16:59:17.382Z,78.70
2019-06-07T17:02:20.897Z,79.30
2019-06-07T17:05:24.355Z,81.10
2019-06-07T17:08:27.464Z,81.10
2019-06-07T17:11:30.690Z,82.30
2019-06-07T17:14:33.954Z,81.60
2019-06-07T17:17:38.713Z,81.10
2019-06-07T17:20:43.219Z,82.30
2019-06-07T17:23:47.405Z,82.70
2019-06-07T17:26:50.760Z,82.80
2019-06-07T17:29:53.928Z,85.90
2019-06-07T17:32:59.530Z,86.90
2019-06-07T17:36:02.169Z,89.00
2019-06-07T17:39:06.993Z,89.20
2019-06-07T17:42:10.216Z,90.10
2019-06-07T17:45:14.814Z,90.70
2019-06-07T17:48:17.926Z,92.00
2019-06-07T17:51:21.004Z,93.00
2019-06-07T17:54:24.230Z,93.70
2019-06-07T17:57:27.637Z,94.50
2019-06-07T18:00:48.772Z,95.50
2019-06-07T18:03:53.235Z,95.70
2019-06-07T18:06:57.044Z,96.40
2019-06-07T18:10:02.026Z,96.40
2019-06-07T18:13:05.589Z,97.00
2019-06-07T18:16:08.884Z,97.60
2019-06-07T18:19:12.424Z,98.50
2019-06-07T18:22:16.024Z,99.00
2019-06-07T18:25:19.397Z,99.40
2019-06-07T18:28:24.406Z,99.90
2019-06-07T18:31:27.943Z,99.90
2019-06-07T18:34:31.233Z,99.90
2019-06-07T18:37:34.432Z,99.90
2019-06-07T18:40:37.661Z,99.90
2019-06-07T18:43:40.953Z,99.90
2019-06-07T18:46:46.085Z,99.90
2019-06-07T18:49:49.612Z,99.90
2019-06-07T18:52:52.769Z,99.90
2019-06-07T18:55:56.231Z,99.90
2019-06-07T18:58:59.890Z,99.90
2019-06-07T19:02:03.191Z,99.90
2019-06-07T19:05:07.093Z,99.90
2019-06-07T19:08:10.268Z,99.90
2019-06-07T19:11:13.468Z,99.90
2019-06-07T19:14:16.898Z,99.90
2019-06-07T19:17:20.160Z,99.90
2019-06-07T19:20:23.430Z,99.90
2019-06-07T19:23:26.656Z,99.90
2019-06-07T19:26:29.965Z,99.90
2019-06-07T19:29:33.287Z,99.90
2019-06-07T19:32:37.814Z,99.90
2019-06-07T19:35:42.532Z,99.90
2019-06-07T19:38:45.716Z,99.90
2019-06-07T19:41:49.259Z,99.90
2019-06-07T19:45:00.054Z,99.90
2019-06-07T19:47:58.692Z,99.90
2019-06-07T19:51:03.183Z,99.90
2019-06-07T19:54:06.453Z,99.90
2019-06-07T19:57:09.686Z,99.90
2019-06-07T20:00:14.415Z,99.90
2019-06-07T20:03:18.147Z,99.90
2019-06-07T20:06:21.634Z,99.90
2019-06-07T20:09:24.985Z,99.90
2019-06-07T20:12:28.350Z,99.90
2019-06-07T20:15:31.453Z,99.90
2019-06-07T20:18:34.716Z,99.90
2019-06-07T20:21:37.809Z,99.90
2019-06-07T20:24:41.045Z,99.90
2019-06-07T20:27:44.325Z,99.90
2019-06-07T20:30:47.537Z,99.90
2019-06-07T20:33:52.400Z,99.90
2019-06-07T20:36:55.528Z,99.90
2019-06-07T20:40:05.952Z,99.90
2019-06-07T20:43:05.740Z,99.90
2019-06-07T20:46:09.345Z,99.90
2019-06-07T20:49:12.514Z,99.90
2019-06-07T20:52:15.601Z,99.90
2019-06-07T20:55:18.933Z,99.90
2019-06-07T20:58:22.920Z,99.90
2019-06-07T21:01:26.000Z,99.90
2019-06-07T21:04:29.201Z,99.90
2019-06-07T21:07:32.935Z,99.90
2019-06-07T21:10:38.021Z,99.90
2019-06-07T21:13:41.346Z,99.90
2019-06-07T21:16:44.645Z,99.90
2019-06-07T21:19:47.729Z,99.90
2019-06-07T21:22:51.451Z,99.90
2019-06-07T21:25:55.904Z,99.90
2019-06-07T21:28:59.170Z,99.90
2019-06-07T21:32:03.350Z,99.90
2019-06-07T21:35:08.479Z,99.90
2019-06-07T21:38:12.745Z,99.90
2019-06-07T21:41:16.316Z,99.90
2019-06-07T21:44:19.540Z,99.90
2019-06-07T21:47:22.865Z,99.90
2019-06-07T21:50:25.937Z,99.90
2019-06-07T21:53:29.020Z,99.90
2019-06-07T21:56:33.387Z,99.90
2019-06-07T21:59:36.646Z,99.90
2019-06-07T22:02:40.150Z,99.90
2019-06-07T22:05:49.303Z,99.90
2019-06-07T22:08:53.627Z,99.90
2019-06-07T22:11:56.796Z,99.90
2019-06-07T22:15:00.041Z,99.90
2019-06-07T22:18:04.422Z,99.90
2019-06-07T22:21:08.558Z,99.90
2019-06-07T22:24:15.091Z,99.90
2019-06-07T22:27:19.033Z,99.90
2019-06-07T22:30:22.237Z,99.90
2019-06-07T22:33:25.950Z,99.90
2019-06-07T22:36:29.115Z,99.90
2019-06-07T22:39:32.450Z,99.90
2019-06-07T22:42:35.769Z,99.90
2019-06-07T22:45:39.513Z,99.90
2019-06-07T22:48:43.881Z,99.90
2019-06-07T22:51:47.169Z,99.90
2019-06-07T22:54:50.440Z,99.90
2019-06-07T22:57:58.179Z,99.90
2019-06-07T23:01:01.431Z,99.90
2019-06-07T23:04:04.869Z,99.90
2019-06-07T23:07:08.985Z,99.90
2019-06-07T23:10:13.337Z,99.90
2019-06-07T23:13:18.070Z,99.90
2019-06-07T23:16:21.757Z,99.90
2019-06-07T23:19:25.245Z,99.90
2019-06-07T23:22:28.545Z,99.90
2019-06-07T23:25:34.404Z,99.90
2019-06-07T23:28:37.909Z,99.90
2019-06-07T23:31:41.173Z,99.90
2019-06-07T23:34:44.290Z,99.90
2019-06-07T23:37:47.598Z,99.90
2019-06-07T23:40:50.753Z,99.90
2019-06-07T23:43:53.881Z,99.90
2019-06-07T23:47:10.385Z,99.90
2019-06-07T23:50:01.984Z,99.90
2019-06-07T23:53:05.218Z,99.90
2019-06-07T23:56:08.366Z,99.90
2019-06-07T23:59:11.989Z,99.90
